sensor_id;sensor_type;location;lat;lon;timestamp;temperature;humidity
11025;DHT22;22890;51.820;8.682;2022-08-03T00:00:26;19.20;99.90
11025;DHT22;22890;51.820;8.682;2022-08-03T00:02:53;19.20;99.90
11025;DHT22;22890;51.820;8.682;2022-08-03T00:05:19;19.10;99.90
11025;DHT22;22890;51.820;8.682;2022-08-03T00:07:46;19.30;99.90
11025;DHT22;22890;51.820;8.682;2022-08-03T00:10:15;19.10;99.90
11025;DHT22;22890;51.820;8.682;2022-08-03T00:12:41;19.00;99.90
11025;DHT22;22890;51.820;8.682;2022-08-03T00:15:09;17.70;99.90
11025;DHT22;22890;51.820;8.682;2022-08-03T00:17:41;19.00;99.90
11025;DHT22;22890;51.820;8.682;2022-08-03T00:20:20;19.00;99.90
11025;DHT22;22890;51.820;8.682;2022-08-03T00:22:47;19.00;99.90
11025;DHT22;22890;51.820;8.682;2022-08-03T00:25:14;19.00;99.90
11025;DHT22;22890;51.820;8.682;2022-08-03T00:27:41;19.00;99.90
11025;DHT22;22890;51.820;8.682;2022-08-03T00:30:08;18.90;99.90
11025;DHT22;22890;51.820;8.682;2022-08-03T00:32:34;18.90;99.90
11025;DHT22;22890;51.820;8.682;2022-08-03T00:35:01;18.90;99.90
11025;DHT22;22890;51.820;8.682;2022-08-03T00:37:35;20.50;99.90
11025;DHT22;22890;51.820;8.682;2022-08-03T00:40:11;18.80;99.90
11025;DHT22;22890;51.820;8.682;2022-08-03T00:43:08;18.80;99.90
11025;DHT22;22890;51.820;8.682;2022-08-03T00:45:38;18.70;99.90
11025;DHT22;22890;51.820;8.682;2022-08-03T00:48:06;18.70;99.90
11025;DHT22;22890;51.820;8.682;2022-08-03T00:50:53;18.70;99.90
11025;DHT22;22890;51.820;8.682;2022-08-03T00:53:20;18.70;99.90
11025;DHT22;22890;51.820;8.682;2022-08-03T00:55:47;18.60;99.90
11025;DHT22;22890;51.820;8.682;2022-08-03T00:58:14;18.60;99.90
11025;DHT22;22890;51.820;8.682;2022-08-03T01:00:41;18.60;99.90
11025;DHT22;22890;51.820;8.682;2022-08-03T01:03:09;18.50;99.90
11025;DHT22;22890;51.820;8.682;2022-08-03T01:11:06;18.40;99.90
11025;DHT22;22890;51.820;8.682;2022-08-03T01:14:02;18.50;99.90
11025;DHT22;22890;51.820;8.682;2022-08-03T01:16:56;18.40;99.90
11025;DHT22;22890;51.820;8.682;2022-08-03T01:19:52;18.30;99.90
11025;DHT22;22890;51.820;8.682;2022-08-03T01:28:54;18.20;99.90
11025;DHT22;22890;51.820;8.682;2022-08-03T01:31:28;18.20;99.90
11025;DHT22;22890;51.820;8.682;2022-08-03T01:34:01;18.20;99.90
11025;DHT22;22890;51.820;8.682;2022-08-03T01:36:44;18.10;99.90
11025;DHT22;22890;51.820;8.682;2022-08-03T01:39:15;18.10;99.90
11025;DHT22;22890;51.820;8.682;2022-08-03T01:41:55;18.00;99.90
11025;DHT22;22890;51.820;8.682;2022-08-03T01:44:29;18.00;99.90
11025;DHT22;22890;51.820;8.682;2022-08-03T01:47:00;18.00;99.90
11025;DHT22;22890;51.820;8.682;2022-08-03T01:49:29;18.00;99.90
11025;DHT22;22890;51.820;8.682;2022-08-03T01:51:57;17.90;99.90
11025;DHT22;22890;51.820;8.682;2022-08-03T01:54:36;17.90;99.90
11025;DHT22;22890;51.820;8.682;2022-08-03T01:57:06;17.90;99.90
11025;DHT22;22890;51.820;8.682;2022-08-03T01:59:34;17.90;99.90
11025;DHT22;22890;51.820;8.682;2022-08-03T02:02:03;17.80;99.90
11025;DHT22;22890;51.820;8.682;2022-08-03T02:04:51;17.80;99.90
11025;DHT22;22890;51.820;8.682;2022-08-03T02:07:19;17.90;99.90
11025;DHT22;22890;51.820;8.682;2022-08-03T02:09:50;17.80;99.90
11025;DHT22;22890;51.820;8.682;2022-08-03T02:12:17;17.90;99.90
11025;DHT22;22890;51.820;8.682;2022-08-03T02:14:45;17.70;99.90
11025;DHT22;22890;51.820;8.682;2022-08-03T02:17:14;17.70;99.90
11025;DHT22;22890;51.820;8.682;2022-08-03T02:19:42;17.70;99.90
11025;DHT22;22890;51.820;8.682;2022-08-03T02:22:10;17.70;99.90
11025;DHT22;22890;51.820;8.682;2022-08-03T02:24:38;17.80;99.90
11025;DHT22;22890;51.820;8.682;2022-08-03T02:27:12;17.70;99.90
11025;DHT22;22890;51.820;8.682;2022-08-03T02:29:41;17.60;99.90
11025;DHT22;22890;51.820;8.682;2022-08-03T02:32:15;17.70;99.90
11025;DHT22;22890;51.820;8.682;2022-08-03T02:34:45;17.60;99.90
11025;DHT22;22890;51.820;8.682;2022-08-03T02:37:14;17.70;99.90
11025;DHT22;22890;51.820;8.682;2022-08-03T02:39:42;17.50;99.90
11025;DHT22;22890;51.820;8.682;2022-08-03T02:42:11;17.50;99.90
11025;DHT22;22890;51.820;8.682;2022-08-03T02:44:40;17.50;99.90
11025;DHT22;22890;51.820;8.682;2022-08-03T02:47:13;17.60;99.90
11025;DHT22;22890;51.820;8.682;2022-08-03T02:49:41;17.50;99.90
11025;DHT22;22890;51.820;8.682;2022-08-03T02:52:22;17.70;99.90
11025;DHT22;22890;51.820;8.682;2022-08-03T02:54:52;17.50;99.90
11025;DHT22;22890;51.820;8.682;2022-08-03T02:57:20;17.60;99.90
11025;DHT22;22890;51.820;8.682;2022-08-03T02:59:48;17.50;99.90
11025;DHT22;22890;51.820;8.682;2022-08-03T03:02:17;17.50;99.90
11025;DHT22;22890;51.820;8.682;2022-08-03T03:04:45;17.50;99.90
11025;DHT22;22890;51.820;8.682;2022-08-03T03:07:33;17.50;99.90
11025;DHT22;22890;51.820;8.682;2022-08-03T03:10:22;17.50;99.90
11025;DHT22;22890;51.820;8.682;2022-08-03T03:12:51;17.40;99.90
11025;DHT22;22890;51.820;8.682;2022-08-03T03:15:18;17.60;99.90
11025;DHT22;22890;51.820;8.682;2022-08-03T03:17:46;17.40;99.90
11025;DHT22;22890;51.820;8.682;2022-08-03T03:20:14;17.30;99.90
11025;DHT22;22890;51.820;8.682;2022-08-03T03:22:57;17.30;99.90
11025;DHT22;22890;51.820;8.682;2022-08-03T03:25:24;17.30;99.90
11025;DHT22;22890;51.820;8.682;2022-08-03T03:27:51;17.30;99.90
11025;DHT22;22890;51.820;8.682;2022-08-03T03:30:17;17.30;99.90
11025;DHT22;22890;51.820;8.682;2022-08-03T03:32:44;17.20;99.90
11025;DHT22;22890;51.820;8.682;2022-08-03T03:35:12;17.20;99.90
11025;DHT22;22890;51.820;8.682;2022-08-03T03:37:39;17.20;99.90
11025;DHT22;22890;51.820;8.682;2022-08-03T03:40:06;17.20;99.90
11025;DHT22;22890;51.820;8.682;2022-08-03T03:42:34;17.20;99.90
11025;DHT22;22890;51.820;8.682;2022-08-03T03:45:05;17.30;99.90
11025;DHT22;22890;51.820;8.682;2022-08-03T03:47:33;17.20;99.90
11025;DHT22;22890;51.820;8.682;2022-08-03T03:50:04;17.20;99.90
11025;DHT22;22890;51.820;8.682;2022-08-03T03:52:32;17.10;99.90
11025;DHT22;22890;51.820;8.682;2022-08-03T03:54:59;17.10;99.90
11025;DHT22;22890;51.820;8.682;2022-08-03T03:57:27;17.30;99.90
11025;DHT22;22890;51.820;8.682;2022-08-03T03:59:54;17.20;99.90
11025;DHT22;22890;51.820;8.682;2022-08-03T04:02:21;16.10;99.90
11025;DHT22;22890;51.820;8.682;2022-08-03T04:04:47;17.10;99.90
11025;DHT22;22890;51.820;8.682;2022-08-03T04:07:54;17.10;99.90
11025;DHT22;22890;51.820;8.682;2022-08-03T04:10:41;17.10;99.90
11025;DHT22;22890;51.820;8.682;2022-08-03T04:13:28;17.20;99.90
11025;DHT22;22890;51.820;8.682;2022-08-03T04:15:56;17.10;99.90
11025;DHT22;22890;51.820;8.682;2022-08-03T04:18:25;17.10;99.90
11025;DHT22;22890;51.820;8.682;2022-08-03T04:20:56;17.20;99.90
11025;DHT22;22890;51.820;8.682;2022-08-03T04:23:24;17.20;99.90
11025;DHT22;22890;51.820;8.682;2022-08-03T04:25:53;17.20;99.90
11025;DHT22;22890;51.820;8.682;2022-08-03T04:28:22;17.20;99.90
11025;DHT22;22890;51.820;8.682;2022-08-03T04:30:58;17.20;99.90
11025;DHT22;22890;51.820;8.682;2022-08-03T04:33:26;17.20;99.90
11025;DHT22;22890;51.820;8.682;2022-08-03T04:35:57;17.20;99.90
11025;DHT22;22890;51.820;8.682;2022-08-03T04:38:30;17.20;99.90
11025;DHT22;22890;51.820;8.682;2022-08-03T04:40:58;17.20;99.90
11025;DHT22;22890;51.820;8.682;2022-08-03T04:43:27;17.40;99.90
11025;DHT22;22890;51.820;8.682;2022-08-03T04:45:55;17.30;99.90
11025;DHT22;22890;51.820;8.682;2022-08-03T04:48:23;17.30;99.90
11025;DHT22;22890;51.820;8.682;2022-08-03T04:50:50;17.50;99.90
11025;DHT22;22890;51.820;8.682;2022-08-03T04:53:17;17.40;99.90
11025;DHT22;22890;51.820;8.682;2022-08-03T04:55:45;17.50;99.90
11025;DHT22;22890;51.820;8.682;2022-08-03T04:58:11;17.60;99.90
11025;DHT22;22890;51.820;8.682;2022-08-03T05:00:38;17.70;99.90
11025;DHT22;22890;51.820;8.682;2022-08-03T05:03:05;17.80;99.90
11025;DHT22;22890;51.820;8.682;2022-08-03T05:05:51;17.90;99.90
11025;DHT22;22890;51.820;8.682;2022-08-03T05:08:27;18.10;99.90
11025;DHT22;22890;51.820;8.682;2022-08-03T05:10:55;17.90;99.90
11025;DHT22;22890;51.820;8.682;2022-08-03T05:13:25;18.40;99.90
11025;DHT22;22890;51.820;8.682;2022-08-03T05:15:51;18.50;99.90
11025;DHT22;22890;51.820;8.682;2022-08-03T05:18:18;18.70;99.90
11025;DHT22;22890;51.820;8.682;2022-08-03T05:20:45;18.90;99.90
11025;DHT22;22890;51.820;8.682;2022-08-03T05:23:11;19.00;99.90
11025;DHT22;22890;51.820;8.682;2022-08-03T05:25:38;19.10;99.90
11025;DHT22;22890;51.820;8.682;2022-08-03T05:28:11;19.20;99.90
11025;DHT22;22890;51.820;8.682;2022-08-03T05:30:38;19.30;99.90
11025;DHT22;22890;51.820;8.682;2022-08-03T05:33:04;19.40;99.90
11025;DHT22;22890;51.820;8.682;2022-08-03T05:35:31;19.50;99.90
11025;DHT22;22890;51.820;8.682;2022-08-03T05:38:20;19.60;99.90
11025;DHT22;22890;51.820;8.682;2022-08-03T05:40:59;19.70;99.90
11025;DHT22;22890;51.820;8.682;2022-08-03T05:43:46;19.90;99.90
11025;DHT22;22890;51.820;8.682;2022-08-03T05:46:13;20.00;99.90
11025;DHT22;22890;51.820;8.682;2022-08-03T05:48:40;20.10;99.90
11025;DHT22;22890;51.820;8.682;2022-08-03T05:51:07;20.30;99.90
11025;DHT22;22890;51.820;8.682;2022-08-03T05:53:37;20.40;99.90
11025;DHT22;22890;51.820;8.682;2022-08-03T05:56:04;20.50;99.90
11025;DHT22;22890;51.820;8.682;2022-08-03T05:58:45;20.60;99.90
11025;DHT22;22890;51.820;8.682;2022-08-03T06:01:17;20.70;99.90
11025;DHT22;22890;51.820;8.682;2022-08-03T06:03:44;20.80;99.90
11025;DHT22;22890;51.820;8.682;2022-08-03T06:06:11;20.90;99.90
11025;DHT22;22890;51.820;8.682;2022-08-03T06:08:39;20.90;99.90
11025;DHT22;22890;51.820;8.682;2022-08-03T06:11:06;21.00;99.90
11025;DHT22;22890;51.820;8.682;2022-08-03T06:13:33;21.00;99.90
11025;DHT22;22890;51.820;8.682;2022-08-03T06:15:59;21.10;99.90
11025;DHT22;22890;51.820;8.682;2022-08-03T06:18:27;21.20;99.90
11025;DHT22;22890;51.820;8.682;2022-08-03T06:20:53;21.30;99.90
11025;DHT22;22890;51.820;8.682;2022-08-03T06:23:20;21.40;99.90
11025;DHT22;22890;51.820;8.682;2022-08-03T06:25:47;21.50;99.90
11025;DHT22;22890;51.820;8.682;2022-08-03T06:28:14;21.70;99.90
11025;DHT22;22890;51.820;8.682;2022-08-03T06:31:01;21.80;99.90
11025;DHT22;22890;51.820;8.682;2022-08-03T06:33:28;22.00;99.90
11025;DHT22;22890;51.820;8.682;2022-08-03T06:36:14;22.20;99.90
11025;DHT22;22890;51.820;8.682;2022-08-03T06:38:41;22.40;99.90
11025;DHT22;22890;51.820;8.682;2022-08-03T06:41:08;22.50;99.90
11025;DHT22;22890;51.820;8.682;2022-08-03T06:43:34;22.60;99.90
11025;DHT22;22890;51.820;8.682;2022-08-03T06:46:04;22.70;99.90
11025;DHT22;22890;51.820;8.682;2022-08-03T06:48:31;22.90;99.90
11025;DHT22;22890;51.820;8.682;2022-08-03T06:50:57;23.00;99.90
11025;DHT22;22890;51.820;8.682;2022-08-03T06:53:24;23.10;99.90
11025;DHT22;22890;51.820;8.682;2022-08-03T06:55:51;23.20;99.90
11025;DHT22;22890;51.820;8.682;2022-08-03T06:58:20;23.40;99.90
11025;DHT22;22890;51.820;8.682;2022-08-03T07:00:47;23.50;99.90
11025;DHT22;22890;51.820;8.682;2022-08-03T07:03:14;23.60;99.90
11025;DHT22;22890;51.820;8.682;2022-08-03T07:05:41;23.70;99.90
11025;DHT22;22890;51.820;8.682;2022-08-03T07:08:08;23.90;99.90
11025;DHT22;22890;51.820;8.682;2022-08-03T07:10:35;24.00;99.90
11025;DHT22;22890;51.820;8.682;2022-08-03T07:13:03;24.10;99.90
11025;DHT22;22890;51.820;8.682;2022-08-03T07:15:30;24.20;99.90
11025;DHT22;22890;51.820;8.682;2022-08-03T07:18:17;24.30;99.90
11025;DHT22;22890;51.820;8.682;2022-08-03T07:20:56;24.40;99.90
11025;DHT22;22890;51.820;8.682;2022-08-03T07:23:23;24.50;99.90
11025;DHT22;22890;51.820;8.682;2022-08-03T07:25:50;24.50;99.90
11025;DHT22;22890;51.820;8.682;2022-08-03T07:28:17;24.60;99.90
11025;DHT22;22890;51.820;8.682;2022-08-03T07:30:44;24.70;99.90
11025;DHT22;22890;51.820;8.682;2022-08-03T07:33:10;24.80;99.90
11025;DHT22;22890;51.820;8.682;2022-08-03T07:35:37;24.80;99.90
11025;DHT22;22890;51.820;8.682;2022-08-03T07:38:04;25.00;99.90
11025;DHT22;22890;51.820;8.682;2022-08-03T07:40:31;25.10;99.90
11025;DHT22;22890;51.820;8.682;2022-08-03T07:42:58;25.20;99.90
11025;DHT22;22890;51.820;8.682;2022-08-03T07:45:25;25.30;99.90
11025;DHT22;22890;51.820;8.682;2022-08-03T07:47:52;25.40;99.90
11025;DHT22;22890;51.820;8.682;2022-08-03T07:50:20;25.60;99.90
11025;DHT22;22890;51.820;8.682;2022-08-03T07:52:48;25.70;99.90
11025;DHT22;22890;51.820;8.682;2022-08-03T07:55:20;25.80;99.90
11025;DHT22;22890;51.820;8.682;2022-08-03T07:58:08;25.90;99.90
11025;DHT22;22890;51.820;8.682;2022-08-03T08:00:35;25.90;99.90
11025;DHT22;22890;51.820;8.682;2022-08-03T08:03:02;26.10;99.90
11025;DHT22;22890;51.820;8.682;2022-08-03T08:05:29;26.20;99.90
11025;DHT22;22890;51.820;8.682;2022-08-03T08:07:56;26.30;99.90
11025;DHT22;22890;51.820;8.682;2022-08-03T08:10:23;26.30;99.90
11025;DHT22;22890;51.820;8.682;2022-08-03T08:12:49;26.50;99.90
11025;DHT22;22890;51.820;8.682;2022-08-03T08:15:16;26.60;99.90
11025;DHT22;22890;51.820;8.682;2022-08-03T08:17:51;26.70;99.90
11025;DHT22;22890;51.820;8.682;2022-08-03T08:20:21;26.80;99.90
11025;DHT22;22890;51.820;8.682;2022-08-03T08:22:55;26.90;99.90
11025;DHT22;22890;51.820;8.682;2022-08-03T08:25:24;27.00;99.90
11025;DHT22;22890;51.820;8.682;2022-08-03T08:27:50;27.00;99.90
11025;DHT22;22890;51.820;8.682;2022-08-03T08:30:37;27.00;99.90
11025;DHT22;22890;51.820;8.682;2022-08-03T08:33:04;27.10;99.90
11025;DHT22;22890;51.820;8.682;2022-08-03T08:35:30;27.20;99.90
11025;DHT22;22890;51.820;8.682;2022-08-03T08:37:59;27.30;99.90
11025;DHT22;22890;51.820;8.682;2022-08-03T08:40:31;27.30;99.90
11025;DHT22;22890;51.820;8.682;2022-08-03T08:42:58;27.30;99.90
11025;DHT22;22890;51.820;8.682;2022-08-03T08:45:25;27.30;99.90
11025;DHT22;22890;51.820;8.682;2022-08-03T08:47:54;27.40;99.90
11025;DHT22;22890;51.820;8.682;2022-08-03T08:50:29;27.50;99.90
11025;DHT22;22890;51.820;8.682;2022-08-03T08:53:00;27.60;99.90
11025;DHT22;22890;51.820;8.682;2022-08-03T08:55:27;27.70;99.90
11025;DHT22;22890;51.820;8.682;2022-08-03T08:58:16;27.70;99.90
11025;DHT22;22890;51.820;8.682;2022-08-03T09:00:46;27.80;99.90
11025;DHT22;22890;51.820;8.682;2022-08-03T09:03:14;27.80;99.90
11025;DHT22;22890;51.820;8.682;2022-08-03T09:05:55;27.90;99.90
11025;DHT22;22890;51.820;8.682;2022-08-03T09:08:22;27.90;99.90
11025;DHT22;22890;51.820;8.682;2022-08-03T09:10:48;27.90;99.90
11025;DHT22;22890;51.820;8.682;2022-08-03T09:13:15;27.90;99.90
11025;DHT22;22890;51.820;8.682;2022-08-03T09:15:41;28.00;99.90
11025;DHT22;22890;51.820;8.682;2022-08-03T09:18:28;28.10;99.90
11025;DHT22;22890;51.820;8.682;2022-08-03T09:21:18;28.10;99.90
11025;DHT22;22890;51.820;8.682;2022-08-03T09:24:04;28.20;99.90
11025;DHT22;22890;51.820;8.682;2022-08-03T09:26:49;28.20;99.90
11025;DHT22;22890;51.820;8.682;2022-08-03T09:29:19;28.20;99.90
11025;DHT22;22890;51.820;8.682;2022-08-03T09:31:46;28.30;99.90
11025;DHT22;22890;51.820;8.682;2022-08-03T09:34:15;28.30;99.90
11025;DHT22;22890;51.820;8.682;2022-08-03T09:36:49;28.30;99.90
11025;DHT22;22890;51.820;8.682;2022-08-03T09:39:21;28.30;99.90
11025;DHT22;22890;51.820;8.682;2022-08-03T09:42:08;28.40;99.90
11025;DHT22;22890;51.820;8.682;2022-08-03T09:44:36;28.40;99.90
11025;DHT22;22890;51.820;8.682;2022-08-03T09:47:04;28.50;99.90
11025;DHT22;22890;51.820;8.682;2022-08-03T09:49:31;28.50;99.90
11025;DHT22;22890;51.820;8.682;2022-08-03T09:52:15;28.60;99.90
11025;DHT22;22890;51.820;8.682;2022-08-03T09:55:08;28.70;99.90
11025;DHT22;22890;51.820;8.682;2022-08-03T09:58:05;28.70;99.90
11025;DHT22;22890;51.820;8.682;2022-08-03T10:00:52;28.80;99.90
11025;DHT22;22890;51.820;8.682;2022-08-03T10:03:20;28.90;99.90
11025;DHT22;22890;51.820;8.682;2022-08-03T10:05:46;29.00;99.90
11025;DHT22;22890;51.820;8.682;2022-08-03T10:08:17;28.90;99.90
11025;DHT22;22890;51.820;8.682;2022-08-03T10:10:46;29.00;99.90
11025;DHT22;22890;51.820;8.682;2022-08-03T10:13:16;29.00;99.90
11025;DHT22;22890;51.820;8.682;2022-08-03T10:15:44;29.40;99.90
11025;DHT22;22890;51.820;8.682;2022-08-03T10:18:31;29.00;99.90
11025;DHT22;22890;51.820;8.682;2022-08-03T10:21:03;29.10;99.90
11025;DHT22;22890;51.820;8.682;2022-08-03T10:23:34;29.20;99.90
11025;DHT22;22890;51.820;8.682;2022-08-03T10:26:03;29.20;99.90
11025;DHT22;22890;51.820;8.682;2022-08-03T10:28:35;29.20;99.90
11025;DHT22;22890;51.820;8.682;2022-08-03T10:31:10;29.20;99.90
11025;DHT22;22890;51.820;8.682;2022-08-03T10:33:42;29.30;99.90
11025;DHT22;22890;51.820;8.682;2022-08-03T10:36:17;29.30;99.90
11025;DHT22;22890;51.820;8.682;2022-08-03T10:38:49;29.40;99.90
11025;DHT22;22890;51.820;8.682;2022-08-03T10:41:20;29.80;99.90
11025;DHT22;22890;51.820;8.682;2022-08-03T10:43:55;29.40;99.90
11025;DHT22;22890;51.820;8.682;2022-08-03T10:46:25;29.40;99.90
11025;DHT22;22890;51.820;8.682;2022-08-03T10:48:52;29.50;99.90
11025;DHT22;22890;51.820;8.682;2022-08-03T10:51:20;29.60;99.90
11025;DHT22;22890;51.820;8.682;2022-08-03T10:53:47;29.60;99.90
11025;DHT22;22890;51.820;8.682;2022-08-03T11:02:12;29.60;99.90
11025;DHT22;22890;51.820;8.682;2022-08-03T11:04:40;29.70;99.80
11025;DHT22;22890;51.820;8.682;2022-08-03T11:07:17;29.70;98.80
11025;DHT22;22890;51.820;8.682;2022-08-03T11:09:48;29.80;98.40
11025;DHT22;22890;51.820;8.682;2022-08-03T11:12:30;29.90;98.20
11025;DHT22;22890;51.820;8.682;2022-08-03T11:15:04;29.90;98.20
11025;DHT22;22890;51.820;8.682;2022-08-03T11:17:32;29.90;98.10
11025;DHT22;22890;51.820;8.682;2022-08-03T11:21:12;30.00;98.70
11025;DHT22;22890;51.820;8.682;2022-08-03T11:23:46;30.10;99.00
11025;DHT22;22890;51.820;8.682;2022-08-03T11:26:31;30.10;96.90
11025;DHT22;22890;51.820;8.682;2022-08-03T11:29:30;30.10;97.50
11025;DHT22;22890;51.820;8.682;2022-08-03T11:31:57;30.10;97.50
11025;DHT22;22890;51.820;8.682;2022-08-03T11:34:24;30.20;97.80
11025;DHT22;22890;51.820;8.682;2022-08-03T11:37:20;30.20;98.20
11025;DHT22;22890;51.820;8.682;2022-08-03T11:39:50;30.20;98.00
11025;DHT22;22890;51.820;8.682;2022-08-03T11:44:52;30.30;97.70
11025;DHT22;22890;51.820;8.682;2022-08-03T11:47:20;30.30;97.70
11025;DHT22;22890;51.820;8.682;2022-08-03T11:49:49;30.30;97.80
11025;DHT22;22890;51.820;8.682;2022-08-03T11:52:17;30.30;97.90
11025;DHT22;22890;51.820;8.682;2022-08-03T11:54:53;30.30;98.00
11025;DHT22;22890;51.820;8.682;2022-08-03T11:57:33;30.30;98.10
11025;DHT22;22890;51.820;8.682;2022-08-03T12:02:58;30.40;98.20
11025;DHT22;22890;51.820;8.682;2022-08-03T12:05:38;30.50;97.90
11025;DHT22;22890;51.820;8.682;2022-08-03T12:08:07;30.50;97.20
11025;DHT22;22890;51.820;8.682;2022-08-03T12:10:35;30.40;96.00
11025;DHT22;22890;51.820;8.682;2022-08-03T12:13:04;30.40;96.10
11025;DHT22;22890;51.820;8.682;2022-08-03T12:15:53;30.50;96.30
11025;DHT22;22890;51.820;8.682;2022-08-03T12:18:22;30.60;96.50
11025;DHT22;22890;51.820;8.682;2022-08-03T12:20:50;30.60;96.60
11025;DHT22;22890;51.820;8.682;2022-08-03T12:23:18;30.50;96.30
11025;DHT22;22890;51.820;8.682;2022-08-03T12:25:46;30.60;95.40
11025;DHT22;22890;51.820;8.682;2022-08-03T12:28:17;30.60;95.30
11025;DHT22;22890;51.820;8.682;2022-08-03T12:31:05;30.70;95.70
11025;DHT22;22890;51.820;8.682;2022-08-03T12:33:53;30.70;94.60
11025;DHT22;22890;51.820;8.682;2022-08-03T12:36:20;30.70;94.60
11025;DHT22;22890;51.820;8.682;2022-08-03T12:38:54;30.70;94.60
11025;DHT22;22890;51.820;8.682;2022-08-03T12:41:33;30.80;94.30
11025;DHT22;22890;51.820;8.682;2022-08-03T12:44:02;30.80;94.60
11025;DHT22;22890;51.820;8.682;2022-08-03T12:46:37;30.80;94.40
11025;DHT22;22890;51.820;8.682;2022-08-03T12:49:12;30.80;94.40
11025;DHT22;22890;51.820;8.682;2022-08-03T12:52:04;30.80;94.90
11025;DHT22;22890;51.820;8.682;2022-08-03T12:54:33;30.90;94.90
11025;DHT22;22890;51.820;8.682;2022-08-03T12:57:11;30.80;94.80
11025;DHT22;22890;51.820;8.682;2022-08-03T12:59:43;30.80;94.80
11025;DHT22;22890;51.820;8.682;2022-08-03T13:02:24;30.80;95.30
11025;DHT22;22890;51.820;8.682;2022-08-03T13:04:53;30.80;95.60
11025;DHT22;22890;51.820;8.682;2022-08-03T13:07:20;30.80;95.40
11025;DHT22;22890;51.820;8.682;2022-08-03T13:09:53;30.70;95.30
11025;DHT22;22890;51.820;8.682;2022-08-03T13:12:25;30.70;95.40
11025;DHT22;22890;51.820;8.682;2022-08-03T13:14:55;30.70;95.30
11025;DHT22;22890;51.820;8.682;2022-08-03T13:17:22;30.70;95.20
11025;DHT22;22890;51.820;8.682;2022-08-03T13:19:49;30.70;94.10
11025;DHT22;22890;51.820;8.682;2022-08-03T13:22:22;30.80;94.10
11025;DHT22;22890;51.820;8.682;2022-08-03T13:24:51;30.80;94.00
11025;DHT22;22890;51.820;8.682;2022-08-03T13:27:18;30.80;94.00
11025;DHT22;22890;51.820;8.682;2022-08-03T13:30:06;30.80;94.30
11025;DHT22;22890;51.820;8.682;2022-08-03T13:32:34;30.80;94.50
11025;DHT22;22890;51.820;8.682;2022-08-03T13:35:01;30.80;94.40
11025;DHT22;22890;51.820;8.682;2022-08-03T13:37:29;30.90;94.40
11025;DHT22;22890;51.820;8.682;2022-08-03T13:39:58;31.00;94.40
11025;DHT22;22890;51.820;8.682;2022-08-03T13:42:30;31.00;94.30
11025;DHT22;22890;51.820;8.682;2022-08-03T13:44:57;31.10;94.10
11025;DHT22;22890;51.820;8.682;2022-08-03T13:47:25;31.10;94.20
11025;DHT22;22890;51.820;8.682;2022-08-03T13:49:52;31.10;93.90
11025;DHT22;22890;51.820;8.682;2022-08-03T13:52:33;31.10;94.00
11025;DHT22;22890;51.820;8.682;2022-08-03T13:55:03;31.10;93.90
11025;DHT22;22890;51.820;8.682;2022-08-03T13:57:30;31.00;93.80
11025;DHT22;22890;51.820;8.682;2022-08-03T14:00:17;31.00;93.70
11025;DHT22;22890;51.820;8.682;2022-08-03T14:02:58;31.00;93.30
11025;DHT22;22890;51.820;8.682;2022-08-03T14:05:35;31.00;93.60
11025;DHT22;22890;51.820;8.682;2022-08-03T14:08:04;31.00;93.50
11025;DHT22;22890;51.820;8.682;2022-08-03T14:10:37;31.00;93.30
11025;DHT22;22890;51.820;8.682;2022-08-03T14:13:05;31.50;93.20
11025;DHT22;22890;51.820;8.682;2022-08-03T14:15:32;31.00;93.20
11025;DHT22;22890;51.820;8.682;2022-08-03T14:18:05;31.10;93.40
11025;DHT22;22890;51.820;8.682;2022-08-03T14:20:32;31.10;93.60
11025;DHT22;22890;51.820;8.682;2022-08-03T14:23:13;31.10;93.30
11025;DHT22;22890;51.820;8.682;2022-08-03T14:25:41;31.10;93.40
11025;DHT22;22890;51.820;8.682;2022-08-03T14:28:17;31.00;93.50
11025;DHT22;22890;51.820;8.682;2022-08-03T14:30:44;31.00;93.80
11025;DHT22;22890;51.820;8.682;2022-08-03T14:33:11;31.10;94.00
11025;DHT22;22890;51.820;8.682;2022-08-03T14:35:38;31.10;93.60
11025;DHT22;22890;51.820;8.682;2022-08-03T14:38:04;31.20;93.90
11025;DHT22;22890;51.820;8.682;2022-08-03T14:40:31;31.20;93.80
11025;DHT22;22890;51.820;8.682;2022-08-03T14:42:57;31.30;94.10
11025;DHT22;22890;51.820;8.682;2022-08-03T14:45:24;31.40;93.50
11025;DHT22;22890;51.820;8.682;2022-08-03T14:47:51;31.40;93.30
11025;DHT22;22890;51.820;8.682;2022-08-03T14:50:37;31.50;93.30
11025;DHT22;22890;51.820;8.682;2022-08-03T14:53:12;31.50;93.20
11025;DHT22;22890;51.820;8.682;2022-08-03T14:55:39;31.60;92.40
11025;DHT22;22890;51.820;8.682;2022-08-03T14:58:17;31.60;92.60
11025;DHT22;22890;51.820;8.682;2022-08-03T15:00:46;31.60;92.70
11025;DHT22;22890;51.820;8.682;2022-08-03T15:03:13;31.60;92.40
11025;DHT22;22890;51.820;8.682;2022-08-03T15:05:42;31.70;92.60
11025;DHT22;22890;51.820;8.682;2022-08-03T15:08:09;31.70;92.80
11025;DHT22;22890;51.820;8.682;2022-08-03T15:10:36;31.70;93.00
11025;DHT22;22890;51.820;8.682;2022-08-03T15:13:06;31.70;92.90
11025;DHT22;22890;51.820;8.682;2022-08-03T15:15:33;31.70;92.80
11025;DHT22;22890;51.820;8.682;2022-08-03T15:17:59;31.70;92.20
11025;DHT22;22890;51.820;8.682;2022-08-03T15:20:26;31.80;92.40
11025;DHT22;22890;51.820;8.682;2022-08-03T15:23:08;31.80;92.40
11025;DHT22;22890;51.820;8.682;2022-08-03T15:25:34;31.90;92.20
11025;DHT22;22890;51.820;8.682;2022-08-03T15:28:21;31.90;92.40
11025;DHT22;22890;51.820;8.682;2022-08-03T15:30:51;32.00;91.70
11025;DHT22;22890;51.820;8.682;2022-08-03T15:33:17;32.00;91.90
11025;DHT22;22890;51.820;8.682;2022-08-03T15:35:44;32.10;91.50
11025;DHT22;22890;51.820;8.682;2022-08-03T15:38:12;32.10;91.70
11025;DHT22;22890;51.820;8.682;2022-08-03T15:40:39;32.20;91.70
11025;DHT22;22890;51.820;8.682;2022-08-03T15:43:05;32.20;91.70
11025;DHT22;22890;51.820;8.682;2022-08-03T15:45:32;32.20;91.70
11025;DHT22;22890;51.820;8.682;2022-08-03T15:48:02;32.20;91.10
11025;DHT22;22890;51.820;8.682;2022-08-03T15:50:29;32.30;91.40
11025;DHT22;22890;51.820;8.682;2022-08-03T15:52:55;32.40;91.70
11025;DHT22;22890;51.820;8.682;2022-08-03T15:55:22;32.40;91.60
11025;DHT22;22890;51.820;8.682;2022-08-03T15:57:49;32.40;91.90
11025;DHT22;22890;51.820;8.682;2022-08-03T16:00:35;32.40;91.50
11025;DHT22;22890;51.820;8.682;2022-08-03T16:03:02;32.40;90.70
11025;DHT22;22890;51.820;8.682;2022-08-03T16:05:29;32.30;90.70
11025;DHT22;22890;51.820;8.682;2022-08-03T16:07:55;32.30;90.60
11025;DHT22;22890;51.820;8.682;2022-08-03T16:10:30;32.30;90.70
11025;DHT22;22890;51.820;8.682;2022-08-03T16:12:57;32.30;90.80
11025;DHT22;22890;51.820;8.682;2022-08-03T16:15:26;32.20;90.90
11025;DHT22;22890;51.820;8.682;2022-08-03T16:17:53;32.20;91.70
11025;DHT22;22890;51.820;8.682;2022-08-03T16:20:20;32.10;92.60